Авиационная погода в аэропорту Байкал

Регион: 
Погода METAR: 
UIUU 262030Z 31009MPS 9999 BKN040CB M14/M21 Q1018 R26/491045 NOSIG RMK QFE719/0959
Время наблюдения
2021-02-26T20:30:00Z
Температура C
-14.0
Точка росы
-21.0
Направление ветра
310
Скорость ветра (узлы)
17
Метео видимость
6.21
Явления погоды
Условия полета
VFR
Аэропорт подробнее: